sensor_id;sensor_type;location;lat;lon;timestamp;P1;durP1;ratioP1;P2;durP2;ratioP2
12800;SDS011;6464;42.494;27.470;2023-05-10T04:02:40;0.43;;;0.43;;
12800;SDS011;6464;42.494;27.470;2023-05-10T04:05:08;0.40;;;0.40;;
12800;SDS011;6464;42.494;27.470;2023-05-10T04:07:36;0.50;;;0.50;;
12800;SDS011;6464;42.494;27.470;2023-05-10T04:10:03;0.40;;;0.40;;
12800;SDS011;6464;42.494;27.470;2023-05-10T04:12:31;0.40;;;0.40;;
12800;SDS011;6464;42.494;27.470;2023-05-10T04:14:58;0.50;;;0.50;;
12800;SDS011;6464;42.494;27.470;2023-05-10T04:17:26;0.50;;;0.50;;
12800;SDS011;6464;42.494;27.470;2023-05-10T04:19:57;0.57;;;0.57;;
12800;SDS011;6464;42.494;27.470;2023-05-10T04:22:24;0.60;;;0.60;;
12800;SDS011;6464;42.494;27.470;2023-05-10T04:24:54;0.50;;;0.50;;
12800;SDS011;6464;42.494;27.470;2023-05-10T04:27:22;0.80;;;0.80;;
12800;SDS011;6464;42.494;27.470;2023-05-10T04:29:50;0.80;;;0.80;;
12800;SDS011;6464;42.494;27.470;2023-05-10T04:32:17;0.70;;;0.70;;
12800;SDS011;6464;42.494;27.470;2023-05-10T04:34:46;0.70;;;0.70;;
12800;SDS011;6464;42.494;27.470;2023-05-10T04:37:19;0.73;;;0.73;;
12800;SDS011;6464;42.494;27.470;2023-05-10T04:39:52;1.00;;;1.00;;
12800;SDS011;6464;42.494;27.470;2023-05-10T04:42:25;1.00;;;1.00;;
12800;SDS011;6464;42.494;27.470;2023-05-10T04:44:53;1.00;;;1.00;;
12800;SDS011;6464;42.494;27.470;2023-05-10T04:47:24;1.00;;;1.00;;
12800;SDS011;6464;42.494;27.470;2023-05-10T04:49:52;1.10;;;1.10;;
12800;SDS011;6464;42.494;27.470;2023-05-10T04:52:22;1.23;;;1.23;;
12800;SDS011;6464;42.494;27.470;2023-05-10T04:54:49;1.30;;;1.30;;
12800;SDS011;6464;42.494;27.470;2023-05-10T04:57:17;1.20;;;1.20;;
12800;SDS011;6464;42.494;27.470;2023-05-10T04:59:46;1.20;;;1.20;;
12800;SDS011;6464;42.494;27.470;2023-05-10T05:02:13;1.20;;;1.20;;
12800;SDS011;6464;42.494;27.470;2023-05-10T05:04:41;1.20;;;1.20;;
12800;SDS011;6464;42.494;27.470;2023-05-10T05:07:11;1.40;;;1.40;;
12800;SDS011;6464;42.494;27.470;2023-05-10T05:09:40;1.40;;;1.40;;
12800;SDS011;6464;42.494;27.470;2023-05-10T05:12:08;1.40;;;1.40;;
12800;SDS011;6464;42.494;27.470;2023-05-10T05:14:39;1.70;;;1.70;;
12800;SDS011;6464;42.494;27.470;2023-05-10T05:17:10;2.00;;;2.00;;
12800;SDS011;6464;42.494;27.470;2023-05-10T05:19:40;1.90;;;1.90;;
12800;SDS011;6464;42.494;27.470;2023-05-10T05:22:09;1.80;;;1.80;;
12800;SDS011;6464;42.494;27.470;2023-05-10T05:24:37;2.20;;;2.20;;
12800;SDS011;6464;42.494;27.470;2023-05-10T05:27:28;2.20;;;2.20;;
12800;SDS011;6464;42.494;27.470;2023-05-10T05:29:57;2.20;;;2.20;;
12800;SDS011;6464;42.494;27.470;2023-05-10T05:32:25;2.27;;;2.27;;
12800;SDS011;6464;42.494;27.470;2023-05-10T05:34:53;1.97;;;1.97;;
12800;SDS011;6464;42.494;27.470;2023-05-10T05:37:21;2.27;;;2.27;;
12800;SDS011;6464;42.494;27.470;2023-05-10T05:39:49;2.40;;;2.40;;
12800;SDS011;6464;42.494;27.470;2023-05-10T05:42:23;2.20;;;2.20;;
12800;SDS011;6464;42.494;27.470;2023-05-10T05:44:52;2.17;;;2.17;;
12800;SDS011;6464;42.494;27.470;2023-05-10T05:47:21;2.20;;;2.20;;
12800;SDS011;6464;42.494;27.470;2023-05-10T05:49:48;2.40;;;2.40;;
12800;SDS011;6464;42.494;27.470;2023-05-10T05:52:16;2.30;;;2.30;;
12800;SDS011;6464;42.494;27.470;2023-05-10T05:54:44;2.50;;;2.50;;
12800;SDS011;6464;42.494;27.470;2023-05-10T05:57:13;3.00;;;3.00;;
12800;SDS011;6464;42.494;27.470;2023-05-10T05:59:42;3.10;;;3.10;;
12800;SDS011;6464;42.494;27.470;2023-05-10T06:02:12;3.30;;;3.30;;
12800;SDS011;6464;42.494;27.470;2023-05-10T06:04:39;3.17;;;3.17;;
12800;SDS011;6464;42.494;27.470;2023-05-10T06:07:07;3.20;;;3.20;;
12800;SDS011;6464;42.494;27.470;2023-05-10T06:09:35;2.88;;;2.88;;
12800;SDS011;6464;42.494;27.470;2023-05-10T06:12:04;2.80;;;2.80;;
12800;SDS011;6464;42.494;27.470;2023-05-10T06:14:32;3.00;;;3.00;;
12800;SDS011;6464;42.494;27.470;2023-05-10T06:17:03;3.20;;;3.20;;
12800;SDS011;6464;42.494;27.470;2023-05-10T06:19:32;3.10;;;3.10;;
12800;SDS011;6464;42.494;27.470;2023-05-10T06:22:02;3.40;;;3.40;;
12800;SDS011;6464;42.494;27.470;2023-05-10T06:24:29;3.10;;;3.10;;
12800;SDS011;6464;42.494;27.470;2023-05-10T06:26:57;3.17;;;3.17;;
12800;SDS011;6464;42.494;27.470;2023-05-10T06:29:26;3.20;;;3.20;;
12800;SDS011;6464;42.494;27.470;2023-05-10T06:31:53;3.38;;;3.38;;
12800;SDS011;6464;42.494;27.470;2023-05-10T06:34:26;3.50;;;3.50;;
12800;SDS011;6464;42.494;27.470;2023-05-10T06:36:54;3.40;;;3.40;;
12800;SDS011;6464;42.494;27.470;2023-05-10T06:39:22;3.50;;;3.50;;
12800;SDS011;6464;42.494;27.470;2023-05-10T06:41:52;4.15;;;4.05;;
12800;SDS011;6464;42.494;27.470;2023-05-10T06:44:20;4.20;;;4.10;;
12800;SDS011;6464;42.494;27.470;2023-05-10T06:46:48;4.60;;;4.50;;
12800;SDS011;6464;42.494;27.470;2023-05-10T06:49:17;4.60;;;4.50;;
12800;SDS011;6464;42.494;27.470;2023-05-10T06:51:46;4.40;;;4.30;;
12800;SDS011;6464;42.494;27.470;2023-05-10T06:54:14;4.50;;;4.40;;
12800;SDS011;6464;42.494;27.470;2023-05-10T06:56:41;4.40;;;4.30;;
12800;SDS011;6464;42.494;27.470;2023-05-10T06:59:09;4.70;;;4.60;;
12800;SDS011;6464;42.494;27.470;2023-05-10T07:01:37;4.50;;;4.40;;
12800;SDS011;6464;42.494;27.470;2023-05-10T07:04:05;4.60;;;4.50;;
12800;SDS011;6464;42.494;27.470;2023-05-10T07:06:32;4.55;;;4.45;;
12800;SDS011;6464;42.494;27.470;2023-05-10T07:09:02;4.65;;;4.55;;
12800;SDS011;6464;42.494;27.470;2023-05-10T07:11:30;4.57;;;4.47;;
12800;SDS011;6464;42.494;27.470;2023-05-10T07:13:57;4.20;;;4.10;;
12800;SDS011;6464;42.494;27.470;2023-05-10T07:16:24;4.60;;;4.50;;
12800;SDS011;6464;42.494;27.470;2023-05-10T07:18:52;4.75;;;4.65;;
12800;SDS011;6464;42.494;27.470;2023-05-10T07:21:20;4.72;;;4.63;;
12800;SDS011;6464;42.494;27.470;2023-05-10T07:23:49;5.20;;;5.10;;
12800;SDS011;6464;42.494;27.470;2023-05-10T07:26:19;5.00;;;4.90;;
12800;SDS011;6464;42.494;27.470;2023-05-10T07:28:49;4.78;;;4.68;;
12800;SDS011;6464;42.494;27.470;2023-05-10T07:31:16;4.78;;;4.68;;
12800;SDS011;6464;42.494;27.470;2023-05-10T07:33:45;5.10;;;5.00;;
12800;SDS011;6464;42.494;27.470;2023-05-10T07:36:13;4.90;;;4.80;;
12800;SDS011;6464;42.494;27.470;2023-05-10T07:38:40;4.80;;;4.70;;
12800;SDS011;6464;42.494;27.470;2023-05-10T07:41:26;4.70;;;4.60;;
12800;SDS011;6464;42.494;27.470;2023-05-10T07:43:56;4.90;;;4.80;;
12800;SDS011;6464;42.494;27.470;2023-05-10T07:46:23;5.10;;;5.00;;
12800;SDS011;6464;42.494;27.470;2023-05-10T07:48:52;4.80;;;4.70;;
12800;SDS011;6464;42.494;27.470;2023-05-10T07:51:19;4.90;;;4.80;;
12800;SDS011;6464;42.494;27.470;2023-05-10T07:53:47;4.90;;;4.80;;
12800;SDS011;6464;42.494;27.470;2023-05-10T07:56:25;4.93;;;4.82;;
12800;SDS011;6464;42.494;27.470;2023-05-10T07:58:55;5.00;;;4.90;;
12800;SDS011;6464;42.494;27.470;2023-05-10T08:01:25;5.07;;;4.97;;
12800;SDS011;6464;42.494;27.470;2023-05-10T08:03:56;5.10;;;5.00;;
12800;SDS011;6464;42.494;27.470;2023-05-10T08:06:23;5.45;;;5.35;;
12800;SDS011;6464;42.494;27.470;2023-05-10T08:08:56;5.50;;;5.40;;
12800;SDS011;6464;42.494;27.470;2023-05-10T08:11:25;5.50;;;5.40;;
12800;SDS011;6464;42.494;27.470;2023-05-10T08:13:53;5.47;;;5.38;;
12800;SDS011;6464;42.494;27.470;2023-05-10T08:16:22;5.60;;;5.50;;
12800;SDS011;6464;42.494;27.470;2023-05-10T08:18:50;5.70;;;5.60;;
12800;SDS011;6464;42.494;27.470;2023-05-10T08:21:20;5.72;;;5.63;;
12800;SDS011;6464;42.494;27.470;2023-05-10T08:23:49;5.70;;;5.60;;
12800;SDS011;6464;42.494;27.470;2023-05-10T08:26:16;6.07;;;5.90;;
12800;SDS011;6464;42.494;27.470;2023-05-10T08:28:45;6.10;;;6.00;;
12800;SDS011;6464;42.494;27.470;2023-05-10T08:31:13;5.97;;;5.88;;
12800;SDS011;6464;42.494;27.470;2023-05-10T08:33:40;6.20;;;6.00;;
12800;SDS011;6464;42.494;27.470;2023-05-10T08:36:10;6.00;;;5.90;;
12800;SDS011;6464;42.494;27.470;2023-05-10T08:38:45;6.40;;;6.20;;
12800;SDS011;6464;42.494;27.470;2023-05-10T08:41:12;6.20;;;6.00;;
12800;SDS011;6464;42.494;27.470;2023-05-10T08:43:41;6.30;;;6.10;;
12800;SDS011;6464;42.494;27.470;2023-05-10T08:46:14;6.00;;;5.90;;
12800;SDS011;6464;42.494;27.470;2023-05-10T08:48:45;6.30;;;6.10;;
12800;SDS011;6464;42.494;27.470;2023-05-10T08:51:19;6.20;;;6.00;;
12800;SDS011;6464;42.494;27.470;2023-05-10T08:53:51;6.22;;;6.03;;
12800;SDS011;6464;42.494;27.470;2023-05-10T08:56:20;5.97;;;5.88;;
12800;SDS011;6464;42.494;27.470;2023-05-10T08:58:49;6.40;;;6.20;;
12800;SDS011;6464;42.494;27.470;2023-05-10T09:01:20;6.38;;;6.18;;
12800;SDS011;6464;42.494;27.470;2023-05-10T09:03:50;6.43;;;6.22;;
12800;SDS011;6464;42.494;27.470;2023-05-10T09:06:18;6.35;;;6.15;;
12800;SDS011;6464;42.494;27.470;2023-05-10T09:08:47;6.28;;;6.07;;
12800;SDS011;6464;42.494;27.470;2023-05-10T09:11:15;6.40;;;6.20;;
12800;SDS011;6464;42.494;27.470;2023-05-10T09:13:44;6.28;;;6.07;;
12800;SDS011;6464;42.494;27.470;2023-05-10T09:16:17;6.50;;;6.30;;
12800;SDS011;6464;42.494;27.470;2023-05-10T09:18:46;6.28;;;6.07;;
12800;SDS011;6464;42.494;27.470;2023-05-10T09:21:15;6.60;;;6.40;;
12800;SDS011;6464;42.494;27.470;2023-05-10T09:23:43;6.30;;;6.10;;
12800;SDS011;6464;42.494;27.470;2023-05-10T09:26:15;6.20;;;6.00;;
12800;SDS011;6464;42.494;27.470;2023-05-10T09:28:54;6.60;;;6.40;;
12800;SDS011;6464;42.494;27.470;2023-05-10T09:34:17;6.70;;;6.50;;
12800;SDS011;6464;42.494;27.470;2023-05-10T09:36:56;6.68;;;6.47;;
12800;SDS011;6464;42.494;27.470;2023-05-10T09:39:31;6.90;;;6.70;;
12800;SDS011;6464;42.494;27.470;2023-05-10T09:41:59;7.10;;;6.90;;
12800;SDS011;6464;42.494;27.470;2023-05-10T09:44:28;6.97;;;6.78;;
12800;SDS011;6464;42.494;27.470;2023-05-10T09:46:58;9.43;;;9.13;;
12800;SDS011;6464;42.494;27.470;2023-05-10T09:49:27;9.27;;;8.98;;
12800;SDS011;6464;42.494;27.470;2023-05-10T09:52:00;8.95;;;8.65;;
12800;SDS011;6464;42.494;27.470;2023-05-10T09:54:31;8.68;;;8.38;;
12800;SDS011;6464;42.494;27.470;2023-05-10T09:57:02;9.10;;;8.80;;
12800;SDS011;6464;42.494;27.470;2023-05-10T09:59:32;8.52;;;8.23;;
12800;SDS011;6464;42.494;27.470;2023-05-10T10:02:03;9.32;;;9.02;;
12800;SDS011;6464;42.494;27.470;2023-05-10T10:04:30;7.75;;;7.55;;
12800;SDS011;6464;42.494;27.470;2023-05-10T10:06:58;7.70;;;7.50;;
12800;SDS011;6464;42.494;27.470;2023-05-10T10:09:26;7.80;;;7.60;;
12800;SDS011;6464;42.494;27.470;2023-05-10T10:11:54;8.10;;;7.90;;
12800;SDS011;6464;42.494;27.470;2023-05-10T10:14:22;7.90;;;7.70;;
12800;SDS011;6464;42.494;27.470;2023-05-10T10:16:49;7.78;;;7.57;;
12800;SDS011;6464;42.494;27.470;2023-05-10T10:19:18;8.00;;;7.80;;
12800;SDS011;6464;42.494;27.470;2023-05-10T10:21:45;8.38;;;8.07;;
12800;SDS011;6464;42.494;27.470;2023-05-10T10:24:12;8.60;;;8.30;;
12800;SDS011;6464;42.494;27.470;2023-05-10T10:26:39;8.18;;;7.93;;
12800;SDS011;6464;42.494;27.470;2023-05-10T10:29:12;7.97;;;7.78;;
12800;SDS011;6464;42.494;27.470;2023-05-10T10:31:45;8.38;;;8.07;;
12800;SDS011;6464;42.494;27.470;2023-05-10T10:34:21;7.90;;;7.70;;
12800;SDS011;6464;42.494;27.470;2023-05-10T10:36:52;7.80;;;7.60;;
12800;SDS011;6464;42.494;27.470;2023-05-10T10:39:20;8.20;;;8.00;;
12800;SDS011;6464;42.494;27.470;2023-05-10T10:41:51;7.93;;;7.72;;
12800;SDS011;6464;42.494;27.470;2023-05-10T10:44:22;7.95;;;7.75;;
12800;SDS011;6464;42.494;27.470;2023-05-10T10:50:06;8.30;;;8.05;;
12800;SDS011;6464;42.494;27.470;2023-05-10T10:52:35;8.45;;;8.15;;
12800;SDS011;6464;42.494;27.470;2023-05-10T10:55:03;8.48;;;8.18;;
12800;SDS011;6464;42.494;27.470;2023-05-10T10:57:41;8.65;;;8.35;;
12800;SDS011;6464;42.494;27.470;2023-05-10T11:00:19;8.15;;;7.95;;
12800;SDS011;6464;42.494;27.470;2023-05-10T11:02:51;8.55;;;8.25;;
12800;SDS011;6464;42.494;27.470;2023-05-10T11:08:16;8.35;;;8.05;;
12800;SDS011;6464;42.494;27.470;2023-05-10T11:10:51;8.38;;;8.07;;
12800;SDS011;6464;42.494;27.470;2023-05-10T11:13:29;8.60;;;8.30;;
12800;SDS011;6464;42.494;27.470;2023-05-10T11:15:58;10.52;;;10.13;;
12800;SDS011;6464;42.494;27.470;2023-05-10T11:18:26;10.45;;;10.05;;
12800;SDS011;6464;42.494;27.470;2023-05-10T11:20:57;10.35;;;9.95;;
12800;SDS011;6464;42.494;27.470;2023-05-10T11:23:29;8.27;;;8.00;;
12800;SDS011;6464;42.494;27.470;2023-05-10T11:25:57;8.90;;;8.60;;
12800;SDS011;6464;42.494;27.470;2023-05-10T11:28:25;9.55;;;9.25;;
12800;SDS011;6464;42.494;27.470;2023-05-10T11:30:53;8.00;;;7.80;;
12800;SDS011;6464;42.494;27.470;2023-05-10T11:33:21;7.85;;;7.65;;
12800;SDS011;6464;42.494;27.470;2023-05-10T11:35:48;7.80;;;7.60;;
12800;SDS011;6464;42.494;27.470;2023-05-10T11:38:16;8.00;;;7.80;;
12800;SDS011;6464;42.494;27.470;2023-05-10T11:40:43;8.00;;;7.80;;
12800;SDS011;6464;42.494;27.470;2023-05-10T11:43:10;8.00;;;7.80;;
12800;SDS011;6464;42.494;27.470;2023-05-10T11:45:37;8.20;;;7.95;;
12800;SDS011;6464;42.494;27.470;2023-05-10T11:48:06;8.10;;;7.90;;
12800;SDS011;6464;42.494;27.470;2023-05-10T11:50:34;8.30;;;8.00;;
12800;SDS011;6464;42.494;27.470;2023-05-10T11:53:01;8.30;;;8.00;;
12800;SDS011;6464;42.494;27.470;2023-05-10T11:55:29;8.00;;;7.80;;
12800;SDS011;6464;42.494;27.470;2023-05-10T11:58:00;8.30;;;8.00;;
12800;SDS011;6464;42.494;27.470;2023-05-10T12:00:28;8.05;;;7.85;;
12800;SDS011;6464;42.494;27.470;2023-05-10T12:02:56;8.00;;;7.80;;
12800;SDS011;6464;42.494;27.470;2023-05-10T12:05:24;8.40;;;8.10;;
12800;SDS011;6464;42.494;27.470;2023-05-10T12:07:51;7.75;;;7.55;;
12800;SDS011;6464;42.494;27.470;2023-05-10T12:10:18;8.25;;;7.97;;
12800;SDS011;6464;42.494;27.470;2023-05-10T12:12:53;7.97;;;7.78;;
12800;SDS011;6464;42.494;27.470;2023-05-10T12:15:20;7.80;;;7.60;;
12800;SDS011;6464;42.494;27.470;2023-05-10T12:17:48;9.07;;;8.77;;
12800;SDS011;6464;42.494;27.470;2023-05-10T12:20:17;9.48;;;9.18;;
12800;SDS011;6464;42.494;27.470;2023-05-10T12:22:45;9.68;;;9.38;;
12800;SDS011;6464;42.494;27.470;2023-05-10T12:25:13;9.77;;;9.48;;
12800;SDS011;6464;42.494;27.470;2023-05-10T12:27:40;9.15;;;8.85;;
12800;SDS011;6464;42.494;27.470;2023-05-10T12:30:17;9.90;;;9.60;;
12800;SDS011;6464;42.494;27.470;2023-05-10T12:32:46;9.93;;;9.63;;
12800;SDS011;6464;42.494;27.470;2023-05-10T12:35:13;9.93;;;9.63;;
12800;SDS011;6464;42.494;27.470;2023-05-10T12:37:41;9.50;;;9.20;;
12800;SDS011;6464;42.494;27.470;2023-05-10T12:40:09;9.60;;;9.30;;
12800;SDS011;6464;42.494;27.470;2023-05-10T12:42:37;8.70;;;8.40;;
12800;SDS011;6464;42.494;27.470;2023-05-10T12:45:05;9.27;;;8.98;;
12800;SDS011;6464;42.494;27.470;2023-05-10T12:47:34;9.43;;;9.13;;
12800;SDS011;6464;42.494;27.470;2023-05-10T12:50:02;9.43;;;9.13;;
12800;SDS011;6464;42.494;27.470;2023-05-10T12:52:29;9.60;;;9.30;;
12800;SDS011;6464;42.494;27.470;2023-05-10T12:54:57;9.50;;;9.20;;
12800;SDS011;6464;42.494;27.470;2023-05-10T12:57:25;9.60;;;9.30;;
12800;SDS011;6464;42.494;27.470;2023-05-10T12:59:52;8.60;;;8.30;;
12800;SDS011;6464;42.494;27.470;2023-05-10T13:02:19;8.70;;;8.40;;
12800;SDS011;6464;42.494;27.470;2023-05-10T13:04:49;8.20;;;8.00;;
12800;SDS011;6464;42.494;27.470;2023-05-10T13:07:17;8.10;;;7.90;;
12800;SDS011;6464;42.494;27.470;2023-05-10T13:09:44;8.52;;;8.23;;
12800;SDS011;6464;42.494;27.470;2023-05-10T13:12:10;8.73;;;8.43;;
12800;SDS011;6464;42.494;27.470;2023-05-10T13:14:37;8.60;;;8.30;;
12800;SDS011;6464;42.494;27.470;2023-05-10T13:17:05;8.45;;;8.15;;
12800;SDS011;6464;42.494;27.470;2023-05-10T13:19:33;8.50;;;8.20;;
12800;SDS011;6464;42.494;27.470;2023-05-10T13:22:01;8.13;;;7.93;;
12800;SDS011;6464;42.494;27.470;2023-05-10T13:24:29;8.30;;;8.05;;
12800;SDS011;6464;42.494;27.470;2023-05-10T13:26:56;7.85;;;7.65;;
12800;SDS011;6464;42.494;27.470;2023-05-10T13:29:22;8.18;;;7.97;;
12800;SDS011;6464;42.494;27.470;2023-05-10T13:31:49;8.10;;;7.90;;
12800;SDS011;6464;42.494;27.470;2023-05-10T13:34:16;8.20;;;8.00;;
12800;SDS011;6464;42.494;27.470;2023-05-10T13:36:45;7.80;;;7.60;;
12800;SDS011;6464;42.494;27.470;2023-05-10T13:39:14;8.70;;;8.40;;
12800;SDS011;6464;42.494;27.470;2023-05-10T13:41:41;8.48;;;8.18;;
12800;SDS011;6464;42.494;27.470;2023-05-10T13:44:08;7.80;;;7.60;;
12800;SDS011;6464;42.494;27.470;2023-05-10T13:46:36;7.88;;;7.68;;
12800;SDS011;6464;42.494;27.470;2023-05-10T13:49:03;7.90;;;7.70;;
12800;SDS011;6464;42.494;27.470;2023-05-10T13:51:30;8.00;;;7.80;;
12800;SDS011;6464;42.494;27.470;2023-05-10T13:53:57;7.90;;;7.70;;
12800;SDS011;6464;42.494;27.470;2023-05-10T13:56:26;7.80;;;7.60;;
12800;SDS011;6464;42.494;27.470;2023-05-10T13:58:52;7.72;;;7.53;;
12800;SDS011;6464;42.494;27.470;2023-05-10T14:01:20;8.02;;;7.82;;
12800;SDS011;6464;42.494;27.470;2023-05-10T14:03:47;8.50;;;8.20;;
12800;SDS011;6464;42.494;27.470;2023-05-10T14:06:15;8.10;;;7.90;;
12800;SDS011;6464;42.494;27.470;2023-05-10T14:08:43;7.80;;;7.60;;
12800;SDS011;6464;42.494;27.470;2023-05-10T14:11:10;7.80;;;7.60;;
12800;SDS011;6464;42.494;27.470;2023-05-10T14:13:39;7.85;;;7.65;;
12800;SDS011;6464;42.494;27.470;2023-05-10T14:16:06;7.82;;;7.63;;
12800;SDS011;6464;42.494;27.470;2023-05-10T14:18:33;7.82;;;7.63;;
12800;SDS011;6464;42.494;27.470;2023-05-10T14:21:01;7.80;;;7.60;;
12800;SDS011;6464;42.494;27.470;2023-05-10T14:23:28;7.78;;;7.57;;
12800;SDS011;6464;42.494;27.470;2023-05-10T14:25:56;7.82;;;7.63;;
12800;SDS011;6464;42.494;27.470;2023-05-10T14:28:22;7.55;;;7.35;;
12800;SDS011;6464;42.494;27.470;2023-05-10T14:30:51;7.68;;;7.47;;
12800;SDS011;6464;42.494;27.470;2023-05-10T14:33:18;7.80;;;7.60;;
12800;SDS011;6464;42.494;27.470;2023-05-10T14:35:46;7.88;;;7.68;;
12800;SDS011;6464;42.494;27.470;2023-05-10T14:38:13;7.93;;;7.72;;
12800;SDS011;6464;42.494;27.470;2023-05-10T14:40:40;7.95;;;7.75;;
12800;SDS011;6464;42.494;27.470;2023-05-10T14:43:07;9.55;;;9.25;;
12800;SDS011;6464;42.494;27.470;2023-05-10T14:45:34;9.27;;;8.98;;
12800;SDS011;6464;42.494;27.470;2023-05-10T14:48:02;7.93;;;7.72;;
12800;SDS011;6464;42.494;27.470;2023-05-10T14:50:29;7.88;;;7.68;;
12800;SDS011;6464;42.494;27.470;2023-05-10T14:52:56;7.90;;;7.70;;
12800;SDS011;6464;42.494;27.470;2023-05-10T14:55:24;8.10;;;7.90;;
12800;SDS011;6464;42.494;27.470;2023-05-10T14:57:51;8.20;;;7.95;;
12800;SDS011;6464;42.494;27.470;2023-05-10T15:00:18;7.80;;;7.60;;
12800;SDS011;6464;42.494;27.470;2023-05-10T15:02:46;8.10;;;7.90;;
12800;SDS011;6464;42.494;27.470;2023-05-10T15:05:14;8.40;;;8.10;;
12800;SDS011;6464;42.494;27.470;2023-05-10T15:07:42;9.35;;;9.05;;
12800;SDS011;6464;42.494;27.470;2023-05-10T15:10:09;8.90;;;8.60;;
12800;SDS011;6464;42.494;27.470;2023-05-10T15:12:36;8.10;;;7.90;;
12800;SDS011;6464;42.494;27.470;2023-05-10T15:15:04;9.70;;;9.40;;
12800;SDS011;6464;42.494;27.470;2023-05-10T15:17:32;9.35;;;9.05;;
12800;SDS011;6464;42.494;27.470;2023-05-10T15:19:59;9.40;;;9.10;;
12800;SDS011;6464;42.494;27.470;2023-05-10T15:22:29;9.60;;;9.30;;
12800;SDS011;6464;42.494;27.470;2023-05-10T15:24:56;9.60;;;9.30;;
12800;SDS011;6464;42.494;27.470;2023-05-10T15:27:24;9.30;;;9.00;;
12800;SDS011;6464;42.494;27.470;2023-05-10T15:29:51;7.95;;;7.75;;
12800;SDS011;6464;42.494;27.470;2023-05-10T15:32:18;7.78;;;7.57;;
12800;SDS011;6464;42.494;27.470;2023-05-10T15:34:45;7.80;;;7.60;;
12800;SDS011;6464;42.494;27.470;2023-05-10T15:37:12;7.90;;;7.70;;
12800;SDS011;6464;42.494;27.470;2023-05-10T15:39:40;7.88;;;7.68;;
12800;SDS011;6464;42.494;27.470;2023-05-10T15:42:07;7.90;;;7.70;;
12800;SDS011;6464;42.494;27.470;2023-05-10T15:44:35;7.60;;;7.40;;
12800;SDS011;6464;42.494;27.470;2023-05-10T15:47:03;7.55;;;7.35;;
12800;SDS011;6464;42.494;27.470;2023-05-10T15:49:30;7.80;;;7.60;;
12800;SDS011;6464;42.494;27.470;2023-05-10T15:51:57;8.10;;;7.90;;
12800;SDS011;6464;42.494;27.470;2023-05-10T15:54:24;7.90;;;7.70;;
12800;SDS011;6464;42.494;27.470;2023-05-10T15:56:53;7.85;;;7.65;;
12800;SDS011;6464;42.494;27.470;2023-05-10T15:59:20;8.10;;;7.90;;
12800;SDS011;6464;42.494;27.470;2023-05-10T16:01:48;8.15;;;7.95;;
12800;SDS011;6464;42.494;27.470;2023-05-10T16:04:15;8.10;;;7.90;;
12800;SDS011;6464;42.494;27.470;2023-05-10T16:06:42;8.30;;;8.00;;
12800;SDS011;6464;42.494;27.470;2023-05-10T16:09:14;7.60;;;7.40;;
12800;SDS011;6464;42.494;27.470;2023-05-10T16:11:46;7.88;;;7.68;;
12800;SDS011;6464;42.494;27.470;2023-05-10T16:14:16;7.50;;;7.30;;
12800;SDS011;6464;42.494;27.470;2023-05-10T16:16:45;7.57;;;7.38;;
12800;SDS011;6464;42.494;27.470;2023-05-10T16:19:13;7.47;;;7.28;;
12800;SDS011;6464;42.494;27.470;2023-05-10T16:21:41;7.40;;;7.20;;
12800;SDS011;6464;42.494;27.470;2023-05-10T16:24:08;6.88;;;6.68;;
12800;SDS011;6464;42.494;27.470;2023-05-10T16:26:37;6.95;;;6.75;;
12800;SDS011;6464;42.494;27.470;2023-05-10T16:29:05;7.00;;;6.80;;
12800;SDS011;6464;42.494;27.470;2023-05-10T16:31:43;6.90;;;6.70;;
12800;SDS011;6464;42.494;27.470;2023-05-10T16:34:10;6.75;;;6.55;;
12800;SDS011;6464;42.494;27.470;2023-05-10T16:36:39;6.80;;;6.60;;
12800;SDS011;6464;42.494;27.470;2023-05-10T16:39:06;6.75;;;6.55;;
12800;SDS011;6464;42.494;27.470;2023-05-10T16:41:35;6.80;;;6.60;;
12800;SDS011;6464;42.494;27.470;2023-05-10T16:44:03;7.03;;;6.82;;
12800;SDS011;6464;42.494;27.470;2023-05-10T16:46:30;6.50;;;6.30;;
12800;SDS011;6464;42.494;27.470;2023-05-10T16:49:05;6.75;;;6.55;;
12800;SDS011;6464;42.494;27.470;2023-05-10T16:51:33;6.75;;;6.55;;
12800;SDS011;6464;42.494;27.470;2023-05-10T16:54:00;6.40;;;6.20;;
12800;SDS011;6464;42.494;27.470;2023-05-10T16:56:28;6.28;;;6.07;;
12800;SDS011;6464;42.494;27.470;2023-05-10T16:58:55;6.18;;;5.97;;
12800;SDS011;6464;42.494;27.470;2023-05-10T17:01:25;6.32;;;6.13;;
12800;SDS011;6464;42.494;27.470;2023-05-10T17:03:52;6.30;;;6.10;;
12800;SDS011;6464;42.494;27.470;2023-05-10T17:06:21;6.30;;;6.10;;
12800;SDS011;6464;42.494;27.470;2023-05-10T17:08:49;6.22;;;6.03;;
12800;SDS011;6464;42.494;27.470;2023-05-10T17:11:17;6.30;;;6.10;;
12800;SDS011;6464;42.494;27.470;2023-05-10T17:13:46;5.80;;;5.70;;
12800;SDS011;6464;42.494;27.470;2023-05-10T17:16:14;5.85;;;5.75;;
12800;SDS011;6464;42.494;27.470;2023-05-10T17:18:41;5.68;;;5.57;;
12800;SDS011;6464;42.494;27.470;2023-05-10T17:21:10;5.90;;;5.80;;
12800;SDS011;6464;42.494;27.470;2023-05-10T17:23:41;6.13;;;5.95;;
12800;SDS011;6464;42.494;27.470;2023-05-10T17:26:08;5.60;;;5.50;;
12800;SDS011;6464;42.494;27.470;2023-05-10T17:28:36;5.70;;;5.60;;
12800;SDS011;6464;42.494;27.470;2023-05-10T17:31:03;6.23;;;6.03;;
12800;SDS011;6464;42.494;27.470;2023-05-10T17:33:31;5.90;;;5.80;;
12800;SDS011;6464;42.494;27.470;2023-05-10T17:35:59;5.57;;;5.47;;
12800;SDS011;6464;42.494;27.470;2023-05-10T17:38:28;5.60;;;5.50;;
12800;SDS011;6464;42.494;27.470;2023-05-10T17:41:06;5.80;;;5.70;;
12800;SDS011;6464;42.494;27.470;2023-05-10T17:43:33;5.50;;;5.40;;
12800;SDS011;6464;42.494;27.470;2023-05-10T17:46:11;5.40;;;5.30;;
12800;SDS011;6464;42.494;27.470;2023-05-10T17:48:39;5.40;;;5.30;;
12800;SDS011;6464;42.494;27.470;2023-05-10T17:51:06;5.57;;;5.47;;
12800;SDS011;6464;42.494;27.470;2023-05-10T17:53:35;5.50;;;5.40;;
12800;SDS011;6464;42.494;27.470;2023-05-10T17:56:05;5.30;;;5.20;;
12800;SDS011;6464;42.494;27.470;2023-05-10T17:58:34;5.13;;;5.03;;
12800;SDS011;6464;42.494;27.470;2023-05-10T18:01:02;5.00;;;4.90;;
12800;SDS011;6464;42.494;27.470;2023-05-10T18:03:30;4.80;;;4.70;;
12800;SDS011;6464;42.494;27.470;2023-05-10T18:06:00;5.10;;;5.00;;
12800;SDS011;6464;42.494;27.470;2023-05-10T18:08:30;5.00;;;4.90;;
12800;SDS011;6464;42.494;27.470;2023-05-10T18:10:58;5.20;;;5.10;;
12800;SDS011;6464;42.494;27.470;2023-05-10T18:13:28;5.20;;;5.10;;
12800;SDS011;6464;42.494;27.470;2023-05-10T18:15:59;5.57;;;5.47;;
12800;SDS011;6464;42.494;27.470;2023-05-10T18:18:30;5.30;;;5.20;;
12800;SDS011;6464;42.494;27.470;2023-05-10T18:20:59;5.00;;;4.90;;
12800;SDS011;6464;42.494;27.470;2023-05-10T18:23:28;4.80;;;4.70;;
12800;SDS011;6464;42.494;27.470;2023-05-10T18:25:58;4.70;;;4.60;;
12800;SDS011;6464;42.494;27.470;2023-05-10T18:28:26;4.80;;;4.70;;
12800;SDS011;6464;42.494;27.470;2023-05-10T18:30:57;5.00;;;4.90;;
12800;SDS011;6464;42.494;27.470;2023-05-10T18:33:27;5.00;;;4.90;;
12800;SDS011;6464;42.494;27.470;2023-05-10T18:35:56;5.13;;;5.03;;
12800;SDS011;6464;42.494;27.470;2023-05-10T18:38:24;4.70;;;4.60;;
12800;SDS011;6464;42.494;27.470;2023-05-10T18:40:52;4.80;;;4.70;;
12800;SDS011;6464;42.494;27.470;2023-05-10T18:43:19;5.00;;;4.90;;
12800;SDS011;6464;42.494;27.470;2023-05-10T18:45:51;5.17;;;5.07;;
12800;SDS011;6464;42.494;27.470;2023-05-10T18:48:19;4.77;;;4.67;;
12800;SDS011;6464;42.494;27.470;2023-05-10T18:50:47;4.63;;;4.53;;
12800;SDS011;6464;42.494;27.470;2023-05-10T18:53:14;5.00;;;4.90;;
12800;SDS011;6464;42.494;27.470;2023-05-10T18:55:42;4.60;;;4.50;;
12800;SDS011;6464;42.494;27.470;2023-05-10T18:58:09;4.40;;;4.30;;
12800;SDS011;6464;42.494;27.470;2023-05-10T19:00:37;4.30;;;4.20;;
12800;SDS011;6464;42.494;27.470;2023-05-10T19:03:06;4.10;;;4.00;;
12800;SDS011;6464;42.494;27.470;2023-05-10T19:05:33;4.30;;;4.20;;
12800;SDS011;6464;42.494;27.470;2023-05-10T19:08:01;4.20;;;4.10;;